sensor_id;sensor_type;location;lat;lon;timestamp;temperature;humidity
35258;DHT22;21385;50.878;8.050;2023-07-28T00:02:03;17.20;99.90
35258;DHT22;21385;50.878;8.050;2023-07-28T00:04:29;17.10;99.90
35258;DHT22;21385;50.878;8.050;2023-07-28T00:06:54;17.20;99.90
35258;DHT22;21385;50.878;8.050;2023-07-28T00:09:20;17.20;99.90
35258;DHT22;21385;50.878;8.050;2023-07-28T00:11:46;17.20;99.90
35258;DHT22;21385;50.878;8.050;2023-07-28T00:14:11;17.10;99.90
35258;DHT22;21385;50.878;8.050;2023-07-28T00:16:37;17.20;99.90
35258;DHT22;21385;50.878;8.050;2023-07-28T00:19:04;17.20;99.90
35258;DHT22;21385;50.878;8.050;2023-07-28T00:21:29;17.20;99.90
35258;DHT22;21385;50.878;8.050;2023-07-28T00:23:55;17.20;99.90
35258;DHT22;21385;50.878;8.050;2023-07-28T00:26:20;17.20;99.90
35258;DHT22;21385;50.878;8.050;2023-07-28T00:28:46;17.20;99.90
35258;DHT22;21385;50.878;8.050;2023-07-28T00:31:11;17.10;99.90
35258;DHT22;21385;50.878;8.050;2023-07-28T00:33:37;17.10;99.90
35258;DHT22;21385;50.878;8.050;2023-07-28T00:36:03;17.10;99.90
35258;DHT22;21385;50.878;8.050;2023-07-28T00:38:29;17.10;99.90
35258;DHT22;21385;50.878;8.050;2023-07-28T00:40:54;17.10;99.90
35258;DHT22;21385;50.878;8.050;2023-07-28T00:43:20;17.10;99.90
35258;DHT22;21385;50.878;8.050;2023-07-28T00:45:45;17.10;99.90
35258;DHT22;21385;50.878;8.050;2023-07-28T00:48:13;17.10;99.90
35258;DHT22;21385;50.878;8.050;2023-07-28T00:50:41;17.00;99.90
35258;DHT22;21385;50.878;8.050;2023-07-28T00:53:07;17.10;99.90
35258;DHT22;21385;50.878;8.050;2023-07-28T00:55:34;17.00;99.90
35258;DHT22;21385;50.878;8.050;2023-07-28T00:57:59;17.00;99.90
35258;DHT22;21385;50.878;8.050;2023-07-28T01:00:25;17.00;99.90
35258;DHT22;21385;50.878;8.050;2023-07-28T01:02:51;17.00;99.90
35258;DHT22;21385;50.878;8.050;2023-07-28T01:05:16;17.00;99.90
35258;DHT22;21385;50.878;8.050;2023-07-28T01:10:26;17.00;99.90
35258;DHT22;21385;50.878;8.050;2023-07-28T01:12:53;17.00;99.90
35258;DHT22;21385;50.878;8.050;2023-07-28T01:15:19;17.00;99.90
35258;DHT22;21385;50.878;8.050;2023-07-28T01:17:45;16.90;99.90
35258;DHT22;21385;50.878;8.050;2023-07-28T01:20:11;16.90;99.90
35258;DHT22;21385;50.878;8.050;2023-07-28T01:23:08;16.90;99.90
35258;DHT22;21385;50.878;8.050;2023-07-28T01:25:47;17.00;99.90
35258;DHT22;21385;50.878;8.050;2023-07-28T01:28:16;17.00;99.90
35258;DHT22;21385;50.878;8.050;2023-07-28T01:30:42;16.90;99.90
35258;DHT22;21385;50.878;8.050;2023-07-28T01:33:08;16.90;99.90
35258;DHT22;21385;50.878;8.050;2023-07-28T01:35:36;16.90;99.90
35258;DHT22;21385;50.878;8.050;2023-07-28T01:38:02;16.90;99.90
35258;DHT22;21385;50.878;8.050;2023-07-28T01:40:28;16.90;99.90
35258;DHT22;21385;50.878;8.050;2023-07-28T01:42:54;17.00;99.90
35258;DHT22;21385;50.878;8.050;2023-07-28T01:45:19;17.00;99.90
35258;DHT22;21385;50.878;8.050;2023-07-28T01:47:45;17.00;99.90
35258;DHT22;21385;50.878;8.050;2023-07-28T01:50:10;16.90;99.90
35258;DHT22;21385;50.878;8.050;2023-07-28T01:52:36;16.90;99.90
35258;DHT22;21385;50.878;8.050;2023-07-28T01:55:01;17.00;99.90
35258;DHT22;21385;50.878;8.050;2023-07-28T01:57:30;16.90;99.90
35258;DHT22;21385;50.878;8.050;2023-07-28T01:59:55;17.00;99.90
35258;DHT22;21385;50.878;8.050;2023-07-28T02:02:21;17.00;99.90
35258;DHT22;21385;50.878;8.050;2023-07-28T02:04:47;17.00;99.90
35258;DHT22;21385;50.878;8.050;2023-07-28T02:07:12;17.00;99.90
35258;DHT22;21385;50.878;8.050;2023-07-28T02:09:38;17.00;99.90
35258;DHT22;21385;50.878;8.050;2023-07-28T02:12:03;17.00;99.90
35258;DHT22;21385;50.878;8.050;2023-07-28T02:14:29;17.00;99.90
35258;DHT22;21385;50.878;8.050;2023-07-28T02:16:55;17.00;99.90
35258;DHT22;21385;50.878;8.050;2023-07-28T02:19:20;17.10;99.90
35258;DHT22;21385;50.878;8.050;2023-07-28T02:21:46;17.10;99.90
35258;DHT22;21385;50.878;8.050;2023-07-28T02:24:11;17.10;99.90
35258;DHT22;21385;50.878;8.050;2023-07-28T02:26:37;17.10;99.90
35258;DHT22;21385;50.878;8.050;2023-07-28T02:29:02;17.10;99.90
35258;DHT22;21385;50.878;8.050;2023-07-28T02:31:28;17.10;99.90
35258;DHT22;21385;50.878;8.050;2023-07-28T02:33:54;17.10;99.90
35258;DHT22;21385;50.878;8.050;2023-07-28T02:36:20;17.10;99.90
35258;DHT22;21385;50.878;8.050;2023-07-28T02:38:45;17.10;99.90
35258;DHT22;21385;50.878;8.050;2023-07-28T02:41:11;17.10;99.90
35258;DHT22;21385;50.878;8.050;2023-07-28T02:43:37;17.10;99.90
35258;DHT22;21385;50.878;8.050;2023-07-28T02:46:03;17.10;99.90
35258;DHT22;21385;50.878;8.050;2023-07-28T02:48:28;17.10;99.90
35258;DHT22;21385;50.878;8.050;2023-07-28T02:50:54;17.10;99.90
35258;DHT22;21385;50.878;8.050;2023-07-28T02:53:19;17.10;99.90
35258;DHT22;21385;50.878;8.050;2023-07-28T02:55:46;17.20;99.90
35258;DHT22;21385;50.878;8.050;2023-07-28T02:58:13;17.10;99.90
35258;DHT22;21385;50.878;8.050;2023-07-28T03:00:42;17.10;99.90
35258;DHT22;21385;50.878;8.050;2023-07-28T03:03:10;17.10;99.90
35258;DHT22;21385;50.878;8.050;2023-07-28T03:05:36;17.10;99.90
35258;DHT22;21385;50.878;8.050;2023-07-28T03:08:02;17.20;99.90
35258;DHT22;21385;50.878;8.050;2023-07-28T03:10:28;17.30;99.90
35258;DHT22;21385;50.878;8.050;2023-07-28T03:12:53;17.20;99.90
35258;DHT22;21385;50.878;8.050;2023-07-28T03:15:20;17.20;99.90
35258;DHT22;21385;50.878;8.050;2023-07-28T03:17:47;17.30;99.90
35258;DHT22;21385;50.878;8.050;2023-07-28T03:20:13;17.30;99.90
35258;DHT22;21385;50.878;8.050;2023-07-28T03:22:39;17.30;99.90
35258;DHT22;21385;50.878;8.050;2023-07-28T03:25:05;17.30;99.90
35258;DHT22;21385;50.878;8.050;2023-07-28T03:27:30;17.30;99.90
35258;DHT22;21385;50.878;8.050;2023-07-28T03:29:56;17.40;99.90
35258;DHT22;21385;50.878;8.050;2023-07-28T03:32:22;17.40;99.90
35258;DHT22;21385;50.878;8.050;2023-07-28T03:34:47;17.40;99.90
35258;DHT22;21385;50.878;8.050;2023-07-28T03:37:13;17.40;99.90
35258;DHT22;21385;50.878;8.050;2023-07-28T03:39:38;17.40;99.90
35258;DHT22;21385;50.878;8.050;2023-07-28T03:42:04;17.50;99.90
35258;DHT22;21385;50.878;8.050;2023-07-28T03:44:30;17.50;99.90
35258;DHT22;21385;50.878;8.050;2023-07-28T03:46:56;17.40;99.90
35258;DHT22;21385;50.878;8.050;2023-07-28T03:49:21;17.40;99.90
35258;DHT22;21385;50.878;8.050;2023-07-28T03:51:47;17.40;99.90
35258;DHT22;21385;50.878;8.050;2023-07-28T03:54:12;17.40;99.90
35258;DHT22;21385;50.878;8.050;2023-07-28T03:56:38;17.40;99.90
35258;DHT22;21385;50.878;8.050;2023-07-28T03:59:04;17.40;99.90
35258;DHT22;21385;50.878;8.050;2023-07-28T04:01:29;17.40;99.90
35258;DHT22;21385;50.878;8.050;2023-07-28T04:03:55;17.40;99.90
35258;DHT22;21385;50.878;8.050;2023-07-28T04:06:42;17.50;99.90
35258;DHT22;21385;50.878;8.050;2023-07-28T04:09:08;17.50;99.90
35258;DHT22;21385;50.878;8.050;2023-07-28T04:11:34;17.50;99.90
35258;DHT22;21385;50.878;8.050;2023-07-28T04:14:00;17.50;99.90
35258;DHT22;21385;50.878;8.050;2023-07-28T04:16:25;17.50;99.90
35258;DHT22;21385;50.878;8.050;2023-07-28T04:18:51;17.60;99.90
35258;DHT22;21385;50.878;8.050;2023-07-28T04:21:17;17.60;99.90
35258;DHT22;21385;50.878;8.050;2023-07-28T04:23:42;17.60;99.90
35258;DHT22;21385;50.878;8.050;2023-07-28T04:26:08;17.80;99.90
35258;DHT22;21385;50.878;8.050;2023-07-28T04:28:34;18.00;99.90
35258;DHT22;21385;50.878;8.050;2023-07-28T04:31:00;18.10;99.90
35258;DHT22;21385;50.878;8.050;2023-07-28T04:33:25;18.10;99.90
35258;DHT22;21385;50.878;8.050;2023-07-28T04:35:51;18.10;99.90
35258;DHT22;21385;50.878;8.050;2023-07-28T04:38:17;18.00;99.90
35258;DHT22;21385;50.878;8.050;2023-07-28T04:45:35;18.40;99.90
35258;DHT22;21385;50.878;8.050;2023-07-28T04:48:01;18.30;99.90
35258;DHT22;21385;50.878;8.050;2023-07-28T04:50:27;18.30;99.90
35258;DHT22;21385;50.878;8.050;2023-07-28T04:52:53;18.10;99.90
35258;DHT22;21385;50.878;8.050;2023-07-28T04:55:19;18.00;99.90
35258;DHT22;21385;50.878;8.050;2023-07-28T04:57:44;17.90;99.90
35258;DHT22;21385;50.878;8.050;2023-07-28T05:00:10;17.80;99.90
35258;DHT22;21385;50.878;8.050;2023-07-28T05:02:36;17.80;99.90
35258;DHT22;21385;50.878;8.050;2023-07-28T05:05:02;17.80;99.90
35258;DHT22;21385;50.878;8.050;2023-07-28T05:07:27;17.80;99.90
35258;DHT22;21385;50.878;8.050;2023-07-28T05:09:54;17.80;99.90
35258;DHT22;21385;50.878;8.050;2023-07-28T05:12:20;17.80;99.90
35258;DHT22;21385;50.878;8.050;2023-07-28T05:14:46;17.80;99.90
35258;DHT22;21385;50.878;8.050;2023-07-28T05:17:11;17.70;99.90
35258;DHT22;21385;50.878;8.050;2023-07-28T05:19:37;17.80;99.90
35258;DHT22;21385;50.878;8.050;2023-07-28T05:22:03;17.80;99.90
35258;DHT22;21385;50.878;8.050;2023-07-28T05:24:28;17.70;99.90
35258;DHT22;21385;50.878;8.050;2023-07-28T05:26:54;17.80;99.90
35258;DHT22;21385;50.878;8.050;2023-07-28T05:29:20;17.80;99.90
35258;DHT22;21385;50.878;8.050;2023-07-28T05:31:45;17.80;99.90
35258;DHT22;21385;50.878;8.050;2023-07-28T05:34:11;17.80;99.90
35258;DHT22;21385;50.878;8.050;2023-07-28T05:36:40;17.90;99.90
35258;DHT22;21385;50.878;8.050;2023-07-28T05:39:05;17.80;99.90
35258;DHT22;21385;50.878;8.050;2023-07-28T05:41:31;17.80;99.90
35258;DHT22;21385;50.878;8.050;2023-07-28T05:43:57;17.80;99.90
35258;DHT22;21385;50.878;8.050;2023-07-28T05:46:23;17.80;99.90
35258;DHT22;21385;50.878;8.050;2023-07-28T05:48:48;17.80;99.90
35258;DHT22;21385;50.878;8.050;2023-07-28T05:51:14;17.80;99.90
35258;DHT22;21385;50.878;8.050;2023-07-28T05:53:40;17.90;99.90
35258;DHT22;21385;50.878;8.050;2023-07-28T05:56:05;17.90;99.90
35258;DHT22;21385;50.878;8.050;2023-07-28T05:58:31;17.90;99.90
35258;DHT22;21385;50.878;8.050;2023-07-28T06:00:57;18.00;99.90
35258;DHT22;21385;50.878;8.050;2023-07-28T06:03:22;17.90;99.90
35258;DHT22;21385;50.878;8.050;2023-07-28T06:05:48;17.90;99.90
35258;DHT22;21385;50.878;8.050;2023-07-28T06:08:14;17.90;99.90
35258;DHT22;21385;50.878;8.050;2023-07-28T06:10:39;17.90;99.90
35258;DHT22;21385;50.878;8.050;2023-07-28T06:13:05;18.00;99.90
35258;DHT22;21385;50.878;8.050;2023-07-28T06:15:31;18.00;99.90
35258;DHT22;21385;50.878;8.050;2023-07-28T06:17:56;18.00;99.90
35258;DHT22;21385;50.878;8.050;2023-07-28T06:20:22;18.00;99.90
35258;DHT22;21385;50.878;8.050;2023-07-28T06:22:48;18.00;99.90
35258;DHT22;21385;50.878;8.050;2023-07-28T06:25:13;18.00;99.90
35258;DHT22;21385;50.878;8.050;2023-07-28T06:27:39;18.00;99.90
35258;DHT22;21385;50.878;8.050;2023-07-28T06:30:05;18.00;99.90
35258;DHT22;21385;50.878;8.050;2023-07-28T06:32:31;18.00;99.90
35258;DHT22;21385;50.878;8.050;2023-07-28T06:34:56;18.10;99.90
35258;DHT22;21385;50.878;8.050;2023-07-28T06:37:23;18.00;99.90
35258;DHT22;21385;50.878;8.050;2023-07-28T06:39:48;18.00;99.90
35258;DHT22;21385;50.878;8.050;2023-07-28T06:42:14;18.10;99.90
35258;DHT22;21385;50.878;8.050;2023-07-28T06:44:42;18.10;99.90
35258;DHT22;21385;50.878;8.050;2023-07-28T06:47:07;18.20;99.90
35258;DHT22;21385;50.878;8.050;2023-07-28T06:49:33;18.10;99.90
35258;DHT22;21385;50.878;8.050;2023-07-28T06:51:58;18.20;99.90
35258;DHT22;21385;50.878;8.050;2023-07-28T06:54:24;18.20;99.90
35258;DHT22;21385;50.878;8.050;2023-07-28T06:56:50;18.30;99.90
35258;DHT22;21385;50.878;8.050;2023-07-28T06:59:15;18.30;99.90
35258;DHT22;21385;50.878;8.050;2023-07-28T07:01:41;18.40;99.90
35258;DHT22;21385;50.878;8.050;2023-07-28T07:06:33;18.50;99.90
35258;DHT22;21385;50.878;8.050;2023-07-28T07:08:58;18.50;99.90
35258;DHT22;21385;50.878;8.050;2023-07-28T07:11:24;18.50;99.90
35258;DHT22;21385;50.878;8.050;2023-07-28T07:13:50;18.50;99.90
35258;DHT22;21385;50.878;8.050;2023-07-28T07:16:16;18.50;99.90
35258;DHT22;21385;50.878;8.050;2023-07-28T07:55:18;18.70;99.90
35258;DHT22;21385;50.878;8.050;2023-07-28T07:57:43;18.70;99.90
35258;DHT22;21385;50.878;8.050;2023-07-28T08:00:10;18.70;99.90
35258;DHT22;21385;50.878;8.050;2023-07-28T08:02:36;18.70;99.90
35258;DHT22;21385;50.878;8.050;2023-07-28T08:05:02;18.80;99.90
35258;DHT22;21385;50.878;8.050;2023-07-28T08:07:28;18.70;99.90
35258;DHT22;21385;50.878;8.050;2023-07-28T08:09:54;18.70;99.90
35258;DHT22;21385;50.878;8.050;2023-07-28T08:12:20;18.70;99.90
35258;DHT22;21385;50.878;8.050;2023-07-28T08:14:45;18.70;99.90
35258;DHT22;21385;50.878;8.050;2023-07-28T08:17:14;18.70;99.90
35258;DHT22;21385;50.878;8.050;2023-07-28T08:19:39;18.70;99.90
35258;DHT22;21385;50.878;8.050;2023-07-28T08:22:05;18.70;99.90
35258;DHT22;21385;50.878;8.050;2023-07-28T08:24:31;18.80;99.90
35258;DHT22;21385;50.878;8.050;2023-07-28T08:26:57;18.80;99.90
35258;DHT22;21385;50.878;8.050;2023-07-28T08:29:23;18.90;99.90
35258;DHT22;21385;50.878;8.050;2023-07-28T08:31:48;18.80;99.90
35258;DHT22;21385;50.878;8.050;2023-07-28T08:34:14;18.80;99.90
35258;DHT22;21385;50.878;8.050;2023-07-28T08:36:41;18.80;99.90
35258;DHT22;21385;50.878;8.050;2023-07-28T08:39:06;18.80;99.90
35258;DHT22;21385;50.878;8.050;2023-07-28T08:41:32;18.90;99.90
35258;DHT22;21385;50.878;8.050;2023-07-28T08:43:57;18.90;99.90
35258;DHT22;21385;50.878;8.050;2023-07-28T08:46:23;18.90;99.90
35258;DHT22;21385;50.878;8.050;2023-07-28T08:48:49;18.90;99.90
35258;DHT22;21385;50.878;8.050;2023-07-28T08:54:36;18.90;99.90
35258;DHT22;21385;50.878;8.050;2023-07-28T08:57:02;19.00;99.90
35258;DHT22;21385;50.878;8.050;2023-07-28T08:59:29;19.00;99.90
35258;DHT22;21385;50.878;8.050;2023-07-28T09:01:57;19.10;99.90
35258;DHT22;21385;50.878;8.050;2023-07-28T09:04:24;19.10;99.90
35258;DHT22;21385;50.878;8.050;2023-07-28T09:06:50;19.10;99.90
35258;DHT22;21385;50.878;8.050;2023-07-28T09:09:19;19.20;99.90
35258;DHT22;21385;50.878;8.050;2023-07-28T09:11:46;19.20;99.90
35258;DHT22;21385;50.878;8.050;2023-07-28T09:14:13;19.10;99.90
35258;DHT22;21385;50.878;8.050;2023-07-28T09:16:39;19.10;99.90
35258;DHT22;21385;50.878;8.050;2023-07-28T09:19:07;19.20;99.90
35258;DHT22;21385;50.878;8.050;2023-07-28T09:21:33;19.20;99.90
35258;DHT22;21385;50.878;8.050;2023-07-28T09:24:04;19.10;99.90
35258;DHT22;21385;50.878;8.050;2023-07-28T09:26:45;19.00;99.90
35258;DHT22;21385;50.878;8.050;2023-07-28T09:29:18;19.10;99.90
35258;DHT22;21385;50.878;8.050;2023-07-28T09:31:45;19.20;99.90
35258;DHT22;21385;50.878;8.050;2023-07-28T09:34:11;19.30;99.90
35258;DHT22;21385;50.878;8.050;2023-07-28T09:39:08;19.50;99.90
35258;DHT22;21385;50.878;8.050;2023-07-28T09:41:38;19.70;99.90
35258;DHT22;21385;50.878;8.050;2023-07-28T09:44:04;19.70;99.90
35258;DHT22;21385;50.878;8.050;2023-07-28T09:46:33;19.80;99.90
35258;DHT22;21385;50.878;8.050;2023-07-28T09:49:05;19.80;99.90
35258;DHT22;21385;50.878;8.050;2023-07-28T09:51:36;19.80;99.90
35258;DHT22;21385;50.878;8.050;2023-07-28T09:54:12;19.70;99.90
35258;DHT22;21385;50.878;8.050;2023-07-28T09:56:45;19.90;99.90
35258;DHT22;21385;50.878;8.050;2023-07-28T09:59:13;19.90;99.90
35258;DHT22;21385;50.878;8.050;2023-07-28T10:01:43;20.00;99.90
35258;DHT22;21385;50.878;8.050;2023-07-28T10:04:10;20.10;99.90
35258;DHT22;21385;50.878;8.050;2023-07-28T10:06:36;20.20;99.90
35258;DHT22;21385;50.878;8.050;2023-07-28T10:09:04;20.40;99.90
35258;DHT22;21385;50.878;8.050;2023-07-28T10:11:31;20.40;99.90
35258;DHT22;21385;50.878;8.050;2023-07-28T10:13:57;20.30;99.90
35258;DHT22;21385;50.878;8.050;2023-07-28T10:16:39;20.20;99.90
35258;DHT22;21385;50.878;8.050;2023-07-28T10:19:05;20.20;99.90
35258;DHT22;21385;50.878;8.050;2023-07-28T10:21:31;20.30;99.90
35258;DHT22;21385;50.878;8.050;2023-07-28T10:23:58;20.40;99.90
35258;DHT22;21385;50.878;8.050;2023-07-28T10:26:38;20.30;99.90
35258;DHT22;21385;50.878;8.050;2023-07-28T10:29:14;20.30;99.90
35258;DHT22;21385;50.878;8.050;2023-07-28T10:32:09;20.30;99.90
35258;DHT22;21385;50.878;8.050;2023-07-28T10:34:59;20.20;99.90
35258;DHT22;21385;50.878;8.050;2023-07-28T10:37:26;20.20;99.90
35258;DHT22;21385;50.878;8.050;2023-07-28T10:45:15;20.50;99.90
35258;DHT22;21385;50.878;8.050;2023-07-28T10:47:41;20.60;99.90
35258;DHT22;21385;50.878;8.050;2023-07-28T10:50:11;20.70;99.90
35258;DHT22;21385;50.878;8.050;2023-07-28T10:52:40;20.80;99.90
35258;DHT22;21385;50.878;8.050;2023-07-28T10:57:44;20.90;99.90
35258;DHT22;21385;50.878;8.050;2023-07-28T11:00:11;20.90;99.90
35258;DHT22;21385;50.878;8.050;2023-07-28T11:02:41;21.00;99.90
35258;DHT22;21385;50.878;8.050;2023-07-28T11:05:13;21.00;99.90
35258;DHT22;21385;50.878;8.050;2023-07-28T11:07:43;21.10;99.90
35258;DHT22;21385;50.878;8.050;2023-07-28T11:10:13;21.10;99.90
35258;DHT22;21385;50.878;8.050;2023-07-28T11:12:47;21.10;99.90
35258;DHT22;21385;50.878;8.050;2023-07-28T11:15:14;21.20;99.90
35258;DHT22;21385;50.878;8.050;2023-07-28T11:17:42;21.30;99.90
35258;DHT22;21385;50.878;8.050;2023-07-28T11:20:17;21.50;99.90
35258;DHT22;21385;50.878;8.050;2023-07-28T11:23:02;21.60;99.90
35258;DHT22;21385;50.878;8.050;2023-07-28T11:25:33;21.80;99.90
35258;DHT22;21385;50.878;8.050;2023-07-28T11:28:01;21.80;99.90
35258;DHT22;21385;50.878;8.050;2023-07-28T11:32:54;21.90;99.90
35258;DHT22;21385;50.878;8.050;2023-07-28T11:35:21;21.90;99.90
35258;DHT22;21385;50.878;8.050;2023-07-28T11:37:51;21.80;99.90
35258;DHT22;21385;50.878;8.050;2023-07-28T11:40:20;21.80;99.90
35258;DHT22;21385;50.878;8.050;2023-07-28T11:42:49;21.80;99.90
35258;DHT22;21385;50.878;8.050;2023-07-28T11:45:16;21.90;99.90
35258;DHT22;21385;50.878;8.050;2023-07-28T12:07:36;22.30;99.90
35258;DHT22;21385;50.878;8.050;2023-07-28T12:10:07;22.20;99.90
35258;DHT22;21385;50.878;8.050;2023-07-28T12:12:44;22.20;99.90
35258;DHT22;21385;50.878;8.050;2023-07-28T12:18:13;22.20;99.90
35258;DHT22;21385;50.878;8.050;2023-07-28T12:23:13;22.30;99.90
35258;DHT22;21385;50.878;8.050;2023-07-28T12:25:38;22.30;99.90
35258;DHT22;21385;50.878;8.050;2023-07-28T12:28:05;22.30;99.90
35258;DHT22;21385;50.878;8.050;2023-07-28T12:30:32;22.30;99.90
35258;DHT22;21385;50.878;8.050;2023-07-28T12:32:57;22.30;99.90
35258;DHT22;21385;50.878;8.050;2023-07-28T12:35:24;22.30;99.90
35258;DHT22;21385;50.878;8.050;2023-07-28T12:37:51;22.30;99.90
35258;DHT22;21385;50.878;8.050;2023-07-28T12:40:17;22.30;99.90
35258;DHT22;21385;50.878;8.050;2023-07-28T12:42:45;22.30;99.90
35258;DHT22;21385;50.878;8.050;2023-07-28T12:45:11;22.30;99.90
35258;DHT22;21385;50.878;8.050;2023-07-28T12:47:37;22.30;99.90
35258;DHT22;21385;50.878;8.050;2023-07-28T12:50:03;22.30;99.90
35258;DHT22;21385;50.878;8.050;2023-07-28T12:52:29;22.30;99.90
35258;DHT22;21385;50.878;8.050;2023-07-28T12:54:55;22.20;99.90
35258;DHT22;21385;50.878;8.050;2023-07-28T12:57:20;22.10;99.90
35258;DHT22;21385;50.878;8.050;2023-07-28T12:59:46;22.10;99.90
35258;DHT22;21385;50.878;8.050;2023-07-28T13:02:11;22.00;99.90
35258;DHT22;21385;50.878;8.050;2023-07-28T13:04:37;22.10;99.90
35258;DHT22;21385;50.878;8.050;2023-07-28T13:07:03;22.20;99.90
35258;DHT22;21385;50.878;8.050;2023-07-28T13:09:28;22.30;99.90
35258;DHT22;21385;50.878;8.050;2023-07-28T13:11:54;22.40;99.90
35258;DHT22;21385;50.878;8.050;2023-07-28T13:14:19;22.60;99.90
35258;DHT22;21385;50.878;8.050;2023-07-28T13:16:45;22.70;99.90
35258;DHT22;21385;50.878;8.050;2023-07-28T13:19:11;22.70;99.90
35258;DHT22;21385;50.878;8.050;2023-07-28T13:21:37;22.60;99.90
35258;DHT22;21385;50.878;8.050;2023-07-28T13:24:02;22.60;99.90
35258;DHT22;21385;50.878;8.050;2023-07-28T13:26:28;22.50;99.90
35258;DHT22;21385;50.878;8.050;2023-07-28T13:28:54;22.60;99.90
35258;DHT22;21385;50.878;8.050;2023-07-28T13:31:22;22.60;99.90
35258;DHT22;21385;50.878;8.050;2023-07-28T13:33:47;22.60;99.90
35258;DHT22;21385;50.878;8.050;2023-07-28T13:36:13;22.70;99.90
35258;DHT22;21385;50.878;8.050;2023-07-28T13:38:39;22.90;99.90
35258;DHT22;21385;50.878;8.050;2023-07-28T13:41:05;23.00;99.90
35258;DHT22;21385;50.878;8.050;2023-07-28T13:43:32;23.00;99.90
35258;DHT22;21385;50.878;8.050;2023-07-28T13:45:58;23.20;99.90
35258;DHT22;21385;50.878;8.050;2023-07-28T13:48:24;23.40;99.90
35258;DHT22;21385;50.878;8.050;2023-07-28T13:50:49;23.60;99.90
35258;DHT22;21385;50.878;8.050;2023-07-28T13:53:15;23.70;99.90
35258;DHT22;21385;50.878;8.050;2023-07-28T13:55:41;23.80;99.90
35258;DHT22;21385;50.878;8.050;2023-07-28T13:58:06;23.70;99.90
35258;DHT22;21385;50.878;8.050;2023-07-28T14:00:32;23.70;99.90
35258;DHT22;21385;50.878;8.050;2023-07-28T14:02:58;23.50;99.90
35258;DHT22;21385;50.878;8.050;2023-07-28T14:05:23;23.30;99.90
35258;DHT22;21385;50.878;8.050;2023-07-28T14:07:49;23.30;99.90
35258;DHT22;21385;50.878;8.050;2023-07-28T14:10:14;23.40;99.90
35258;DHT22;21385;50.878;8.050;2023-07-28T14:12:40;23.50;99.90
35258;DHT22;21385;50.878;8.050;2023-07-28T14:15:07;23.60;99.90
35258;DHT22;21385;50.878;8.050;2023-07-28T14:17:33;23.70;99.90
35258;DHT22;21385;50.878;8.050;2023-07-28T14:19:59;23.70;99.90
35258;DHT22;21385;50.878;8.050;2023-07-28T14:22:24;23.80;99.90
35258;DHT22;21385;50.878;8.050;2023-07-28T14:24:50;23.80;99.90
35258;DHT22;21385;50.878;8.050;2023-07-28T14:27:16;23.80;99.90
35258;DHT22;21385;50.878;8.050;2023-07-28T14:29:41;23.70;99.90
35258;DHT22;21385;50.878;8.050;2023-07-28T14:32:07;23.60;99.90
35258;DHT22;21385;50.878;8.050;2023-07-28T14:34:33;23.30;99.90
35258;DHT22;21385;50.878;8.050;2023-07-28T14:37:03;23.00;99.90
35258;DHT22;21385;50.878;8.050;2023-07-28T14:39:30;22.80;99.90
35258;DHT22;21385;50.878;8.050;2023-07-28T14:41:56;22.70;99.90
35258;DHT22;21385;50.878;8.050;2023-07-28T14:44:21;22.80;99.90
35258;DHT22;21385;50.878;8.050;2023-07-28T14:46:47;22.90;99.90
35258;DHT22;21385;50.878;8.050;2023-07-28T14:49:13;22.90;99.90
35258;DHT22;21385;50.878;8.050;2023-07-28T14:51:38;22.90;99.90
35258;DHT22;21385;50.878;8.050;2023-07-28T14:54:04;22.90;99.90
35258;DHT22;21385;50.878;8.050;2023-07-28T14:56:29;22.90;99.90
35258;DHT22;21385;50.878;8.050;2023-07-28T14:58:55;22.80;99.90
35258;DHT22;21385;50.878;8.050;2023-07-28T15:01:21;22.90;99.90
35258;DHT22;21385;50.878;8.050;2023-07-28T15:03:47;22.80;99.90
35258;DHT22;21385;50.878;8.050;2023-07-28T15:06:12;22.90;99.90
35258;DHT22;21385;50.878;8.050;2023-07-28T15:08:38;22.90;99.90
35258;DHT22;21385;50.878;8.050;2023-07-28T15:11:03;22.90;99.90
35258;DHT22;21385;50.878;8.050;2023-07-28T15:13:29;22.90;99.90
35258;DHT22;21385;50.878;8.050;2023-07-28T15:15:55;22.80;99.90
35258;DHT22;21385;50.878;8.050;2023-07-28T15:18:20;22.70;99.90
35258;DHT22;21385;50.878;8.050;2023-07-28T15:20:46;22.70;99.90
35258;DHT22;21385;50.878;8.050;2023-07-28T15:23:12;22.70;99.90
35258;DHT22;21385;50.878;8.050;2023-07-28T15:28:14;22.50;99.90
35258;DHT22;21385;50.878;8.050;2023-07-28T15:30:40;22.40;99.90
35258;DHT22;21385;50.878;8.050;2023-07-28T15:33:06;22.40;99.90
35258;DHT22;21385;50.878;8.050;2023-07-28T15:35:31;22.30;99.90
35258;DHT22;21385;50.878;8.050;2023-07-28T15:37:57;22.30;99.90
35258;DHT22;21385;50.878;8.050;2023-07-28T15:40:22;22.30;99.90
35258;DHT22;21385;50.878;8.050;2023-07-28T15:42:48;22.20;99.90
35258;DHT22;21385;50.878;8.050;2023-07-28T15:45:14;22.30;99.90
35258;DHT22;21385;50.878;8.050;2023-07-28T15:47:39;22.20;99.90
35258;DHT22;21385;50.878;8.050;2023-07-28T15:50:05;22.10;99.90
35258;DHT22;21385;50.878;8.050;2023-07-28T15:52:32;22.10;99.90
35258;DHT22;21385;50.878;8.050;2023-07-28T15:54:57;22.10;99.90
35258;DHT22;21385;50.878;8.050;2023-07-28T15:57:23;22.20;99.90
35258;DHT22;21385;50.878;8.050;2023-07-28T15:59:49;22.20;99.90
35258;DHT22;21385;50.878;8.050;2023-07-28T16:02:15;22.30;99.90
35258;DHT22;21385;50.878;8.050;2023-07-28T16:04:40;22.20;99.90
35258;DHT22;21385;50.878;8.050;2023-07-28T16:07:06;22.20;99.90
35258;DHT22;21385;50.878;8.050;2023-07-28T16:09:32;22.00;99.90
35258;DHT22;21385;50.878;8.050;2023-07-28T16:11:57;21.80;99.90
35258;DHT22;21385;50.878;8.050;2023-07-28T16:14:23;21.70;99.90
35258;DHT22;21385;50.878;8.050;2023-07-28T16:16:48;21.70;99.90
35258;DHT22;21385;50.878;8.050;2023-07-28T16:19:14;21.70;99.90
35258;DHT22;21385;50.878;8.050;2023-07-28T16:21:40;21.70;99.90
35258;DHT22;21385;50.878;8.050;2023-07-28T16:24:06;21.80;99.90
35258;DHT22;21385;50.878;8.050;2023-07-28T16:26:31;21.80;99.90
35258;DHT22;21385;50.878;8.050;2023-07-28T16:28:57;21.90;99.90
35258;DHT22;21385;50.878;8.050;2023-07-28T16:31:23;21.80;99.90
35258;DHT22;21385;50.878;8.050;2023-07-28T16:33:48;21.70;99.90
35258;DHT22;21385;50.878;8.050;2023-07-28T16:36:14;21.60;99.90
35258;DHT22;21385;50.878;8.050;2023-07-28T16:38:39;21.60;99.90
35258;DHT22;21385;50.878;8.050;2023-07-28T16:41:05;21.60;99.90
35258;DHT22;21385;50.878;8.050;2023-07-28T16:43:31;21.70;99.90
35258;DHT22;21385;50.878;8.050;2023-07-28T16:45:56;21.80;99.90
35258;DHT22;21385;50.878;8.050;2023-07-28T16:48:22;21.90;99.90
35258;DHT22;21385;50.878;8.050;2023-07-28T16:50:47;22.10;99.90
35258;DHT22;21385;50.878;8.050;2023-07-28T16:53:13;22.20;99.90
35258;DHT22;21385;50.878;8.050;2023-07-28T16:55:39;22.30;99.90
35258;DHT22;21385;50.878;8.050;2023-07-28T16:58:04;22.30;99.90